Time;durP1;ratioP1;P1;durP2;ratioP2;P2;SDS_P1;SDS_P2;PMS_P1;PMS_P2;Temp;Humidity;BMP_temperature;BMP_pressure;BME280_temperature;BME280_humidity;BME280_pressure;Samples;Min_cycle;Max_cycle;Signal;HPM_P1;HPM_P2
2022/05/21 00:01:58;;;;;;;13.02;7.75;;;;;;;20.28;72.69;100074.47;5053015;28;20091;-73
2022/05/21 00:04:26;;;;;;;12.45;7.70;;;;;;;20.25;72.93;100067.50;5052694;28;20561;-73
2022/05/21 00:06:55;;;;;;;12.55;7.60;;;;;;;20.25;73.33;100069.38;5052999;28;20045;-73
2022/05/21 00:09:25;;;;;;;11.02;7.20;;;;;;;20.22;73.73;100064.28;5052933;28;20106;-73
2022/05/21 00:11:53;;;;;;;11.30;7.25;;;;;;;20.14;75.02;100066.91;5068073;28;20431;-73
2022/05/21 00:14:21;;;;;;;14.57;7.32;;;;;;;20.08;75.24;100060.28;5052729;28;20123;-73
2022/05/21 00:16:50;;;;;;;13.52;7.15;;;;;;;20.15;74.51;100055.06;5052622;28;20041;-74
2022/05/21 00:19:18;;;;;;;14.43;7.78;;;;;;;20.11;74.88;100057.25;5052983;28;20441;-73
2022/05/21 00:21:46;;;;;;;12.57;7.97;;;;;;;20.19;74.13;100051.06;5052603;28;20049;-73
2022/05/21 00:24:15;;;;;;;13.57;8.18;;;;;;;20.18;73.38;100050.22;5052920;28;20128;-73
2022/05/21 00:26:45;;;;;;;12.15;7.57;;;;;;;20.25;72.85;100055.81;5052688;28;20540;-73
2022/05/21 00:29:13;;;;;;;13.02;8.27;;;;;;;20.21;72.61;100058.00;5052797;28;20132;-73
2022/05/21 00:31:41;;;;;;;13.15;7.80;;;;;;;20.18;72.64;100049.38;5052277;28;20056;-73
2022/05/21 00:34:09;;;;;;;13.30;7.78;;;;;;;20.02;72.90;100041.97;5052654;28;20048;-73
2022/05/21 00:36:38;;;;;;;12.00;7.50;;;;;;;19.92;73.89;100047.47;5052421;28;20069;-73
2022/05/21 00:39:06;;;;;;;12.52;7.80;;;;;;;19.72;75.03;100051.38;5068117;28;20478;-73
2022/05/21 00:41:34;;;;;;;11.52;8.27;;;;;;;19.65;75.36;100042.16;5051432;28;20053;-73
2022/05/21 00:44:04;;;;;;;13.75;8.20;;;;;;;19.62;75.59;100043.34;5052681;28;20098;-73
2022/05/21 00:46:35;;;;;;;10.88;7.25;;;;;;;19.60;76.13;100033.69;5052496;28;20048;-73
2022/05/21 00:49:09;;;;;;;11.68;7.28;;;;;;;19.38;77.34;100033.09;5052774;28;20045;-73
2022/05/21 00:51:42;;;;;;;15.13;8.02;;;;;;;19.30;78.66;100033.03;5052107;28;20088;-73
2022/05/21 00:54:11;;;;;;;15.20;8.15;;;;;;;19.30;79.06;100041.13;5052470;28;20047;-73
2022/05/21 00:56:45;;;;;;;14.27;8.10;;;;;;;19.26;79.28;100047.84;5052366;28;20041;-73
2022/05/21 01:02:04;;;;;;;12.68;7.63;;;;;;;19.11;80.42;100058.34;5056481;28;19928;-73
2022/05/21 01:04:34;;;;;;;13.73;8.25;;;;;;;19.06;80.82;100065.19;5056169;28;20033;-73
2022/05/21 01:07:04;;;;;;;11.52;8.20;;;;;;;19.06;80.95;100057.94;5056183;28;20098;-73
2022/05/21 01:09:34;;;;;;;13.27;8.18;;;;;;;18.99;81.49;100058.69;5055731;28;20436;-74
2022/05/21 01:12:08;;;;;;;16.23;8.30;;;;;;;18.91;82.32;100059.44;5055835;28;20037;-73
2022/05/21 01:14:39;;;;;;;10.32;7.85;;;;;;;18.97;82.55;100060.69;5055951;28;20048;-73
2022/05/21 01:17:11;;;;;;;12.85;8.80;;;;;;;18.93;82.84;100068.25;5055999;28;20041;-73
2022/05/21 01:19:54;;;;;;;16.95;9.15;;;;;;;18.90;82.95;100059.56;5055598;28;20037;-73
2022/05/21 01:22:26;;;;;;;16.60;8.80;;;;;;;18.95;82.25;100066.25;5071372;28;20053;-73
2022/05/21 01:24:54;;;;;;;15.30;8.48;;;;;;;19.07;81.27;100065.03;5055576;28;20052;-73
2022/05/21 01:27:24;;;;;;;14.48;9.10;;;;;;;19.06;81.63;100070.59;5055378;28;20090;-73
2022/05/21 01:29:54;;;;;;;16.70;9.40;;;;;;;19.10;81.14;100062.00;5070834;28;20053;-73
2022/05/21 01:32:22;;;;;;;13.60;9.40;;;;;;;19.09;81.34;100063.03;5055419;28;20044;-73
2022/05/21 01:34:50;;;;;;;16.50;10.05;;;;;;;19.09;81.24;100060.31;5055265;28;20041;-73
2022/05/21 01:37:18;;;;;;;14.30;9.25;;;;;;;19.08;81.32;100058.63;5055360;28;20037;-72
2022/05/21 01:39:48;;;;;;;13.52;8.88;;;;;;;19.04;82.12;100050.97;5055195;28;20462;-73
2022/05/21 01:42:16;;;;;;;13.35;9.32;;;;;;;19.05;82.44;100045.41;5070798;28;20049;-73
2022/05/21 01:44:46;;;;;;;13.85;9.15;;;;;;;19.04;83.55;100045.56;5070463;28;20098;-72
2022/05/21 01:47:16;;;;;;;14.20;9.20;;;;;;;19.09;82.74;100048.66;5055951;28;20426;-73
2022/05/21 01:49:44;;;;;;;14.55;9.43;;;;;;;19.08;83.11;100052.38;5055156;28;20478;-73
2022/05/21 01:52:14;;;;;;;12.15;9.45;;;;;;;19.13;82.39;100058.19;5055003;28;20136;-73
2022/05/21 01:54:43;;;;;;;17.00;10.13;;;;;;;19.11;82.86;100062.91;5054667;28;20045;-73
2022/05/21 01:57:13;;;;;;;14.85;8.90;;;;;;;19.11;82.77;100062.91;5054999;28;20048;-73
2022/05/21 01:59:41;;;;;;;14.40;8.50;;;;;;;19.19;82.18;100076.47;5054473;28;20045;-73
2022/05/21 02:02:10;;;;;;;13.68;8.55;;;;;;;19.12;82.78;100091.63;5053984;28;20440;-73
2022/05/21 02:04:38;;;;;;;14.30;9.13;;;;;;;19.10;83.67;100117.94;5054425;28;20057;-74
2022/05/21 02:07:06;;;;;;;16.35;8.43;;;;;;;19.16;83.42;100141.69;5054710;28;20497;-73
2022/05/21 02:09:34;;;;;;;14.15;8.80;;;;;;;19.28;83.75;100174.78;5054529;28;20045;-73
2022/05/21 02:12:03;;;;;;;12.45;8.68;;;;;;;19.23;84.49;100186.06;5054834;28;20526;-73
2022/05/21 02:14:32;;;;;;;14.27;9.02;;;;;;;19.22;84.89;100183.50;5054758;28;20504;-73
2022/05/21 02:17:01;;;;;;;12.95;8.02;;;;;;;19.16;86.57;100184.94;5054554;28;20047;-73
2022/05/21 02:19:29;;;;;;;11.23;8.20;;;;;;;19.23;86.05;100183.34;5054743;28;20040;-73
2022/05/21 02:21:57;;;;;;;14.45;8.63;;;;;;;19.18;86.63;100193.75;5054434;28;20052;-73
2022/05/21 02:24:26;;;;;;;13.43;8.25;;;;;;;19.36;86.54;100202.78;5053304;28;20060;-73
2022/05/21 02:26:54;;;;;;;15.43;8.77;;;;;;;19.47;85.79;100198.16;5054288;28;20047;-75
2022/05/21 02:29:23;;;;;;;13.65;8.02;;;;;;;19.59;84.58;100196.97;5054486;28;20041;-74
2022/05/21 02:31:53;;;;;;;12.52;7.15;;;;;;;19.70;83.11;100202.22;5054224;28;20435;-73
2022/05/21 02:34:21;;;;;;;9.98;6.68;;;;;;;20.00;80.07;100207.25;5054097;28;20132;-74
2022/05/21 02:39:35;;;;;;;10.35;6.40;;;;;;;20.45;76.50;100222.59;5054089;28;20059;-73
2022/05/21 02:42:04;;;;;;;12.85;6.25;;;;;;;20.52;76.02;100231.81;5054467;28;20053;-74
2022/05/21 02:44:32;;;;;;;11.80;5.65;;;;;;;20.79;75.28;100227.28;5054240;28;20048;-74
2022/05/21 02:47:02;;;;;;;15.23;5.53;;;;;;;20.76;77.81;100224.88;5053623;28;20091;-74
2022/05/21 02:49:30;;;;;;;7.95;5.47;;;;;;;20.79;78.35;100236.25;5054123;28;20076;-73
2022/05/21 02:51:58;;;;;;;9.40;5.07;;;;;;;20.78;77.17;100239.97;5053713;28;20053;-74
2022/05/21 02:54:26;;;;;;;9.20;5.57;;;;;;;20.80;77.69;100231.69;5054019;28;20041;-74
2022/05/21 02:56:54;;;;;;;9.88;5.18;;;;;;;20.62;77.99;100245.25;5052437;28;20561;-74
2022/05/21 02:59:22;;;;;;;7.70;4.70;;;;;;;20.54;79.00;100231.63;5053804;28;20043;-74
2022/05/21 03:01:50;;;;;;;7.05;4.38;;;;;;;20.60;78.51;100249.13;5053615;28;20041;-74
2022/05/21 03:04:20;;;;;;;15.75;4.07;;;;;;;20.73;75.73;100244.16;5053781;28;20048;-74
2022/05/21 03:06:49;;;;;;;8.02;4.20;;;;;;;20.71;76.54;100248.88;5053602;28;20099;-74
2022/05/21 03:12:01;;;;;;;5.40;3.30;;;;;;;20.68;75.41;100236.50;5012780;28;20049;-74
2022/05/21 03:14:30;;;;;;;9.65;3.25;;;;;;;20.62;76.12;100234.41;5053599;28;20048;-74
2022/05/21 03:17:02;;;;;;;8.57;3.38;;;;;;;20.52;78.00;100239.94;5053200;28;20486;-74
2022/05/21 03:19:33;;;;;;;6.65;3.03;;;;;;;20.52;78.66;100239.09;5053498;28;20041;-74
2022/05/21 03:22:01;;;;;;;6.18;2.90;;;;;;;20.36;80.49;100234.31;5052956;28;20043;-74
2022/05/21 03:24:30;;;;;;;5.93;2.90;;;;;;;20.25;81.56;100231.84;5053519;28;20456;-74
2022/05/21 03:26:58;;;;;;;5.65;3.17;;;;;;;20.22;82.15;100237.59;5053266;28;20048;-74
2022/05/21 03:29:26;;;;;;;7.25;3.20;;;;;;;20.19;83.12;100221.66;5052667;28;20060;-74
2022/05/21 03:31:55;;;;;;;6.18;3.40;;;;;;;20.20;83.35;100217.94;5053152;28;20037;-74
2022/05/21 03:34:23;;;;;;;5.07;2.67;;;;;;;20.15;83.96;100210.28;5053461;28;20116;-74
2022/05/21 03:36:53;;;;;;;4.10;2.78;;;;;;;20.10;84.80;100195.50;5053159;28;20048;-74
2022/05/21 03:39:21;;;;;;;4.90;2.75;;;;;;;20.10;84.91;100195.50;5053038;28;20478;-74
2022/05/21 03:41:49;;;;;;;4.90;3.00;;;;;;;20.07;85.52;100190.38;5053040;28;20041;-74
2022/05/21 03:44:17;;;;;;;5.50;3.20;;;;;;;20.17;84.92;100202.88;5053305;28;20045;-74
2022/05/21 03:46:45;;;;;;;5.07;3.10;;;;;;;19.97;87.35;100196.72;5052941;28;20051;-74
2022/05/21 03:49:14;;;;;;;5.35;3.33;;;;;;;19.84;90.52;100190.84;5052899;28;20039;-74
2022/05/21 03:51:43;;;;;;;5.97;2.92;;;;;;;19.87;90.95;100184.28;5052831;28;20045;-76
2022/05/21 03:54:13;;;;;;;7.63;3.08;;;;;;;19.83;92.86;100174.75;5052968;28;20045;-74
2022/05/21 03:56:43;;;;;;;4.70;3.25;;;;;;;19.81;93.26;100185.75;5052766;28;20132;-74
2022/05/21 03:59:11;;;;;;;7.32;3.28;;;;;;;19.68;97.17;100169.88;5053178;28;20041;-74
2022/05/21 04:01:41;;;;;;;7.30;3.20;;;;;;;19.74;95.76;100163.00;5053053;28;20052;-74
2022/05/21 04:04:09;;;;;;;6.18;3.08;;;;;;;19.76;98.78;100125.81;5053122;28;20079;-74
2022/05/21 04:06:37;;;;;;;8.07;2.83;;;;;;;19.73;100.00;100118.00;5053082;28;20056;-74
2022/05/21 04:09:05;;;;;;;8.50;3.20;;;;;;;19.55;100.00;100106.28;5052687;28;20166;-74
2022/05/21 04:11:35;;;;;;;6.53;2.88;;;;;;;19.40;100.00;100087.91;5053037;28;20037;-74
2022/05/21 04:14:03;;;;;;;5.68;2.58;;;;;;;19.25;100.00;100091.25;5052461;28;20044;-74
2022/05/21 04:16:31;;;;;;;7.18;2.25;;;;;;;19.09;100.00;100086.50;5053061;28;20048;-74
2022/05/21 04:19:00;;;;;;;5.32;2.70;;;;;;;19.02;100.00;100088.13;5052634;28;20041;-74
2022/05/21 04:21:28;;;;;;;4.72;2.42;;;;;;;19.11;100.00;100089.94;5052648;28;20045;-74
2022/05/21 04:23:56;;;;;;;6.43;2.75;;;;;;;19.02;100.00;100090.84;5052678;28;20120;-74
2022/05/21 04:26:25;;;;;;;4.78;2.80;;;;;;;19.04;100.00;100099.63;5052553;28;20044;-74
2022/05/21 04:28:54;;;;;;;4.32;2.80;;;;;;;18.95;100.00;100084.31;5052904;28;20041;-74
2022/05/21 04:31:22;;;;;;;5.68;3.00;;;;;;;19.11;100.00;100098.91;5052871;28;20046;-74
2022/05/21 04:33:51;;;;;;;5.80;2.92;;;;;;;19.04;100.00;100088.81;5054115;28;20075;-74
2022/05/21 04:36:19;;;;;;;6.63;3.08;;;;;;;18.94;100.00;100077.22;5056650;28;20378;-74
2022/05/21 04:38:48;;;;;;;5.35;3.20;;;;;;;18.97;100.00;100060.69;5056137;28;20044;-74
2022/05/21 04:41:17;;;;;;;6.32;3.03;;;;;;;18.81;100.00;100078.38;5056615;28;20401;-74
2022/05/21 04:43:45;;;;;;;6.57;3.30;;;;;;;18.66;100.00;100074.50;5056570;28;20045;-74
2022/05/21 04:46:16;;;;;;;5.35;3.08;;;;;;;18.69;100.00;100060.69;5055374;28;20463;-74
2022/05/21 04:48:44;;;;;;;6.80;3.58;;;;;;;18.67;100.00;100054.56;5055161;28;20052;-74
2022/05/21 04:51:31;;;;;;;7.43;3.80;;;;;;;18.67;100.00;100057.28;5056231;28;20470;-74
2022/05/21 04:54:00;;;;;;;6.65;4.07;;;;;;;18.68;100.00;100074.34;5055880;28;20041;-74
2022/05/21 04:56:28;;;;;;;6.57;3.92;;;;;;;18.60;100.00;100115.56;5071685;28;20129;-74
2022/05/21 04:59:12;;;;;;;6.65;3.83;;;;;;;18.73;100.00;100134.19;5056257;28;20087;-74
2022/05/21 05:01:43;;;;;;;7.13;3.72;;;;;;;18.72;100.00;100159.47;5071469;28;20049;-74
2022/05/21 05:04:11;;;;;;;7.22;3.60;;;;;;;18.77;100.00;100171.56;5054284;28;20055;-74
2022/05/21 05:06:40;;;;;;;6.47;3.88;;;;;;;18.79;100.00;100179.53;5056131;28;20058;-74
2022/05/21 05:09:10;;;;;;;7.15;3.88;;;;;;;18.95;100.00;100170.81;5055974;28;20033;-74
2022/05/21 05:11:38;;;;;;;6.13;3.42;;;;;;;18.96;100.00;100184.16;5054732;28;20049;-73
2022/05/21 05:14:06;;;;;;;9.32;4.20;;;;;;;18.96;100.00;100188.72;5071084;28;20041;-74
2022/05/21 05:16:35;;;;;;;8.00;4.20;;;;;;;18.97;100.00;100191.28;5071765;28;20075;-74
2022/05/21 05:19:04;;;;;;;9.48;4.30;;;;;;;18.94;100.00;100190.72;5070901;28;20049;-74
2022/05/21 05:21:33;;;;;;;7.00;4.43;;;;;;;19.03;100.00;100196.09;5071097;28;20422;-74
2022/05/21 05:24:01;;;;;;;7.35;4.50;;;;;;;19.13;100.00;100190.66;5054128;28;20049;-75
2022/05/21 05:26:29;;;;;;;9.77;4.53;;;;;;;19.29;100.00;100190.84;5071027;28;20080;-74
2022/05/21 05:28:57;;;;;;;7.75;4.22;;;;;;;19.38;100.00;100200.75;5055313;28;20478;-74
2022/05/21 05:31:26;;;;;;;7.43;4.28;;;;;;;19.56;100.00;100197.28;5054146;28;20053;-72
2022/05/21 05:33:56;;;;;;;6.15;3.60;;;;;;;19.62;100.00;100202.97;5055239;28;20040;-73
2022/05/21 05:36:26;;;;;;;6.13;3.40;;;;;;;19.66;100.00;100201.63;5055519;28;20485;-72
2022/05/21 05:38:54;;;;;;;5.57;3.35;;;;;;;19.96;100.00;100210.41;5053517;28;20395;-72
2022/05/21 05:41:23;;;;;;;6.60;3.28;;;;;;;19.97;100.00;100202.13;5055447;28;20466;-74
2022/05/21 05:43:54;;;;;;;6.88;2.70;;;;;;;20.33;100.00;100202.16;5053331;28;20128;-75
2022/05/21 05:46:23;;;;;;;5.30;2.28;;;;;;;20.63;100.00;100208.16;5055104;28;20069;-75
2022/05/21 05:48:52;;;;;;;5.35;2.25;;;;;;;20.82;100.00;100186.28;5054626;28;20451;-75
2022/05/21 05:51:21;;;;;;;3.45;2.03;;;;;;;20.90;100.00;100180.91;5053884;28;20106;-73
2022/05/21 05:53:51;;;;;;;4.13;2.40;;;;;;;20.82;100.00;100170.88;5055092;28;20549;-73
2022/05/21 05:56:20;;;;;;;6.47;2.42;;;;;;;20.73;100.00;100181.81;5053938;28;20064;-73
2022/05/21 06:01:34;;;;;;;5.43;2.42;;;;;;;20.61;100.00;100172.25;5053797;28;20077;-73
2022/05/21 06:04:03;;;;;;;5.47;2.40;;;;;;;20.48;100.00;100168.09;5054679;28;20048;-74
2022/05/21 06:06:31;;;;;;;5.63;2.58;;;;;;;20.48;100.00;100164.56;5054901;28;20394;-73
2022/05/21 06:09:01;;;;;;;8.70;2.35;;;;;;;20.43;100.00;100175.84;5054595;28;20040;-74
2022/05/21 06:11:33;;;;;;;5.78;2.50;;;;;;;20.32;100.00;100178.78;5054480;28;20524;-73
2022/05/21 06:14:01;;;;;;;4.22;2.35;;;;;;;20.36;100.00;100169.31;5069951;28;20494;-73
2022/05/21 06:16:29;;;;;;;8.38;2.72;;;;;;;20.17;100.00;100180.31;5053430;28;20509;-73
2022/05/21 06:18:57;;;;;;;4.80;2.50;;;;;;;20.17;100.00;100164.06;5054486;28;20052;-73
2022/05/21 06:21:25;;;;;;;6.75;2.60;;;;;;;20.14;100.00;100196.88;5054363;28;20061;-73
2022/05/21 06:23:54;;;;;;;4.03;2.13;;;;;;;20.16;100.00;100179.47;5053097;28;20076;-74
2022/05/21 06:26:23;;;;;;;5.72;2.20;;;;;;;20.27;100.00;100189.25;5054341;28;20045;-73
2022/05/21 06:28:52;;;;;;;5.63;2.15;;;;;;;20.25;100.00;100193.94;5054384;28;20045;-73
2022/05/21 06:31:20;;;;;;;6.35;2.20;;;;;;;20.28;100.00;100194.50;5052950;28;20103;-73
2022/05/21 06:33:48;;;;;;;6.20;2.15;;;;;;;20.11;100.00;100179.09;5054050;28;20127;-73
2022/05/21 06:36:17;;;;;;;4.30;2.17;;;;;;;20.02;100.00;100193.56;5052733;28;20053;-73
2022/05/21 06:38:45;;;;;;;4.57;2.38;;;;;;;19.79;100.00;100197.75;5053855;28;20045;-73
2022/05/21 06:41:13;;;;;;;3.90;2.25;;;;;;;19.72;100.00;100198.34;5053767;28;20048;-74
2022/05/21 06:43:49;;;;;;;5.15;2.78;;;;;;;19.58;100.00;100188.00;5052937;28;20076;-73
2022/05/21 06:46:18;;;;;;;6.55;2.72;;;;;;;19.41;100.00;100188.81;5053438;28;20049;-73
2022/05/21 06:48:46;;;;;;;6.82;3.00;;;;;;;19.30;100.00;100181.75;5069536;28;20049;-73
2022/05/21 06:51:14;;;;;;;6.65;3.10;;;;;;;19.57;100.00;100182.75;5053144;28;20110;-74
2022/05/21 06:53:43;;;;;;;7.63;2.80;;;;;;;19.42;100.00;100185.97;5053679;28;20040;-73
2022/05/21 06:56:15;;;;;;;4.95;3.20;;;;;;;19.47;100.00;100187.34;5052793;28;20041;-74
2022/05/21 06:58:44;;;;;;;8.40;3.40;;;;;;;19.28;100.00;100199.97;5052910;28;20123;-73
2022/05/21 07:01:14;;;;;;;7.28;3.28;;;;;;;19.55;100.00;100184.75;5053364;28;20430;-74
2022/05/21 07:03:42;;;;;;;5.97;3.22;;;;;;;19.44;100.00;100183.09;5068942;28;20087;-74
2022/05/21 07:08:56;;;;;;;6.05;3.60;;;;;;;19.63;100.00;100172.19;5052200;28;20048;-76
2022/05/21 07:11:24;;;;;;;9.45;3.53;;;;;;;19.74;100.00;100176.53;5068899;28;20051;-74
2022/05/21 07:13:53;;;;;;;7.22;3.30;;;;;;;19.96;100.00;100170.66;5053227;28;20041;-74
2022/05/21 07:16:22;;;;;;;7.70;3.75;;;;;;;20.23;100.00;100155.34;5053227;28;20099;-74
2022/05/21 07:18:52;;;;;;;6.68;3.75;;;;;;;20.27;100.00;100159.47;5052066;28;20124;-73
2022/05/21 07:21:21;;;;;;;5.32;3.17;;;;;;;20.62;100.00;100158.53;5052782;28;20049;-73
2022/05/21 07:23:50;;;;;;;5.78;3.50;;;;;;;20.83;100.00;100155.44;5053350;28;20083;-73
2022/05/21 07:26:19;;;;;;;6.07;3.90;;;;;;;20.84;100.00;100159.84;5052592;28;20036;-73
2022/05/21 07:28:47;;;;;;;6.32;3.42;;;;;;;20.77;100.00;100172.38;5068542;28;20128;-73
2022/05/21 07:31:15;;;;;;;5.35;3.33;;;;;;;20.76;100.00;100173.38;5053068;28;20406;-74
2022/05/21 07:33:45;;;;;;;7.45;3.50;;;;;;;21.04;100.00;100174.06;5053062;28;20072;-73
2022/05/21 07:36:13;;;;;;;5.82;3.20;;;;;;;21.13;100.00;100168.53;5051554;28;20059;-74
2022/05/21 07:38:41;;;;;;;5.68;3.08;;;;;;;21.47;100.00;100170.38;5052721;28;20043;-73
2022/05/21 07:41:12;;;;;;;5.53;3.20;;;;;;;21.76;100.00;100160.94;5051534;28;20044;-74
2022/05/21 07:43:40;;;;;;;5.72;3.03;;;;;;;21.75;100.00;100172.84;5053047;28;20049;-73
2022/05/21 07:46:08;;;;;;;7.18;3.10;;;;;;;21.98;100.00;100173.88;5052803;28;20072;-74
2022/05/21 07:48:36;;;;;;;6.13;3.03;;;;;;;22.20;100.00;100156.97;5053170;28;20208;-73
2022/05/21 07:51:09;;;;;;;5.35;3.30;;;;;;;22.31;100.00;100165.81;5052956;28;20403;-73
2022/05/21 07:53:41;;;;;;;5.93;3.20;;;;;;;22.22;100.00;100152.22;5052561;28;20041;-73
2022/05/21 07:56:15;;;;;;;7.93;3.20;;;;;;;22.46;100.00;100166.81;5068312;28;20049;-73
2022/05/21 07:58:43;;;;;;;4.00;2.72;;;;;;;22.55;100.00;100182.94;5053030;28;20123;-73
2022/05/21 08:01:12;;;;;;;5.80;3.05;;;;;;;22.59;100.00;100186.19;5051328;28;20057;-73
2022/05/21 08:03:47;;;;;;;8.25;3.20;;;;;;;22.68;100.00;100170.69;5051695;28;20049;-72
2022/05/21 08:06:17;;;;;;;5.25;3.05;;;;;;;22.83;100.00;100175.25;5067879;28;20052;-74
2022/05/21 08:08:50;;;;;;;6.15;2.92;;;;;;;22.80;100.00;100180.19;5055289;28;20064;-73
2022/05/21 08:11:18;;;;;;;8.20;3.00;;;;;;;23.09;100.00;100190.53;5056837;28;20053;-74
2022/05/21 08:13:46;;;;;;;5.78;3.22;;;;;;;22.85;100.00;100200.44;5055629;28;20410;-73
2022/05/21 08:16:15;;;;;;;8.13;2.90;;;;;;;23.15;100.00;100189.81;5072010;28;20139;-74
2022/05/21 08:18:43;;;;;;;6.72;2.88;;;;;;;23.06;100.00;100190.84;5072182;28;20060;-74
2022/05/21 08:21:11;;;;;;;4.65;3.00;;;;;;;22.96;100.00;100184.75;5054891;28;20552;-73
2022/05/21 08:29:13;;;;;;;6.95;3.30;;;;;;;22.94;100.00;100197.69;5056079;28;20140;-74
2022/05/21 08:31:41;;;;;;;8.57;3.50;;;;;;;22.79;100.00;100195.66;5055208;28;20135;-73
2022/05/21 08:34:10;;;;;;;5.57;3.15;;;;;;;23.01;100.00;100201.41;5055042;28;20049;-74
2022/05/21 08:36:38;;;;;;;5.70;3.08;;;;;;;23.10;100.00;100194.94;5071841;28;20400;-74
2022/05/21 08:39:09;;;;;;;7.15;3.50;;;;;;;23.25;100.00;100198.63;5071425;28;20080;-74
2022/05/21 08:41:45;;;;;;;6.22;3.40;;;;;;;22.86;100.00;100201.28;5056027;28;20045;-73
2022/05/21 08:44:23;;;;;;;6.65;3.13;;;;;;;22.58;100.00;100206.19;5071173;28;20517;-73
2022/05/21 08:47:03;;;;;;;5.47;3.40;;;;;;;22.71;100.00;100192.94;5056368;28;20051;-73
2022/05/21 08:49:36;;;;;;;5.93;3.60;;;;;;;22.59;100.00;100194.34;5055966;28;20048;-73
2022/05/21 08:52:15;;;;;;;7.32;3.65;;;;;;;22.55;100.00;100198.38;5071080;28;20057;-73
2022/05/21 08:54:48;;;;;;;8.55;3.55;;;;;;;22.42;100.00;100189.91;5056000;28;20073;-73
2022/05/21 08:57:21;;;;;;;7.22;3.95;;;;;;;22.42;100.00;100192.63;5055833;28;20052;-72
2022/05/21 08:59:56;;;;;;;8.10;3.70;;;;;;;22.37;100.00;100184.13;5054552;28;20084;-74
2022/05/21 09:02:29;;;;;;;7.85;3.85;;;;;;;22.36;100.00;100187.88;5054091;28;20057;-73
2022/05/21 09:04:57;;;;;;;6.97;3.75;;;;;;;22.50;100.00;100195.34;5071317;28;20056;-72
2022/05/21 09:07:30;;;;;;;6.63;3.63;;;;;;;22.59;100.00;100193.47;5054324;28;20114;-73
2022/05/21 09:10:11;;;;;;;6.38;3.60;;;;;;;22.92;100.00;100178.84;5054478;28;20053;-72
2022/05/21 09:12:45;;;;;;;6.75;4.18;;;;;;;23.02;100.00;100184.06;5071158;28;20045;-72
2022/05/21 09:18:10;;;;;;;7.13;3.92;;;;;;;23.36;100.00;100187.38;5054100;28;20575;-74
2022/05/21 09:20:48;;;;;;;6.72;3.80;;;;;;;23.58;100.00;100179.44;5070418;28;20051;-74
2022/05/21 09:23:16;;;;;;;6.30;3.60;;;;;;;23.77;100.00;100187.19;5070391;28;20525;-74
2022/05/21 09:25:46;;;;;;;7.28;4.00;;;;;;;24.13;100.00;100187.47;5054437;28;20494;-74
2022/05/21 09:28:22;;;;;;;5.20;2.63;;;;;;;23.87;100.00;100179.66;5053890;28;20080;-74
2022/05/21 09:30:57;;;;;;;7.40;3.35;;;;;;;23.67;100.00;100189.31;5053915;28;20506;-74
2022/05/21 09:33:28;;;;;;;5.72;3.45;;;;;;;23.86;100.00;100198.91;5053944;28;20099;-74
2022/05/21 09:35:58;;;;;;;7.68;3.65;;;;;;;23.94;100.00;100207.88;5054314;28;20050;-74
2022/05/21 09:38:30;;;;;;;7.53;3.55;;;;;;;23.96;100.00;100194.91;5055304;28;20934;-74
2022/05/21 09:41:16;;;;;;;7.55;3.60;;;;;;;24.34;100.00;100192.28;5053777;28;20208;-74
2022/05/21 09:46:37;;;;;;;11.18;3.80;;;;;;;24.29;100.00;100183.75;5055034;28;20542;-74
2022/05/21 09:49:24;;;;;;;6.07;3.25;;;;;;;24.25;100.00;100193.34;5053563;28;20132;-74
2022/05/21 09:52:00;;;;;;;6.35;3.38;;;;;;;24.37;100.00;100205.53;5053664;28;20144;-74
2022/05/21 09:54:33;;;;;;;9.20;4.25;;;;;;;24.35;100.00;100199.44;5053492;28;20072;-74
2022/05/21 09:57:04;;;;;;;6.30;3.50;;;;;;;24.27;100.00;100200.31;5070377;28;20059;-74
2022/05/21 09:59:35;;;;;;;5.55;2.70;;;;;;;24.10;100.00;100192.44;5053468;28;20045;-74
2022/05/21 10:02:19;;;;;;;6.45;3.13;;;;;;;24.37;100.00;100199.25;5054959;28;20052;-74
2022/05/21 10:04:52;;;;;;;9.07;3.30;;;;;;;24.61;100.00;100177.22;5053744;28;20076;-74
2022/05/21 10:13:20;;;;;;;7.10;1.90;;;;;;;24.52;100.00;100168.28;5053292;28;20494;-73
2022/05/21 10:15:57;;;;;;;5.43;2.53;;;;;;;24.77;100.00;100184.38;5069979;28;20041;-73
2022/05/21 10:18:35;;;;;;;5.28;2.67;;;;;;;24.80;100.00;100170.38;5054322;28;20045;-73
2022/05/21 10:21:08;;;;;;;5.18;2.50;;;;;;;24.83;100.00;100178.22;5052952;28;20052;-73
2022/05/21 10:23:41;;;;;;;7.03;2.70;;;;;;;24.94;100.00;100185.94;5069686;28;20049;-73
2022/05/21 10:26:44;;;;;;;5.35;2.30;;;;;;;24.83;98.22;100183.66;5054162;28;20479;-72
2022/05/21 10:29:38;;;;;;;5.80;2.50;;;;;;;25.13;96.86;100173.63;5053897;28;20134;-74
2022/05/21 10:32:17;;;;;;;4.45;1.80;;;;;;;24.86;82.36;100174.25;5052888;28;20067;-73
2022/05/21 10:34:56;;;;;;;5.00;2.30;;;;;;;25.05;77.23;100179.19;5053863;28;20049;-73
2022/05/21 10:37:44;;;;;;;4.45;2.33;;;;;;;25.35;74.39;100177.28;5052597;28;20049;-74
2022/05/21 10:40:26;;;;;;;4.75;2.20;;;;;;;25.23;69.23;100189.72;5069113;28;20057;-75
2022/05/21 10:43:22;;;;;;;5.80;2.33;;;;;;;25.30;63.49;100168.84;5052739;28;20052;-74
2022/05/21 10:46:09;;;;;;;4.68;1.70;;;;;;;25.53;52.52;100182.34;5069487;28;20114;-74
2022/05/21 10:49:01;;;;;;;2.88;1.42;;;;;;;24.94;42.54;100183.19;5052677;28;20048;-73
2022/05/21 10:51:33;;;;;;;4.90;1.67;;;;;;;25.07;39.60;100199.78;5052128;28;20056;-74
2022/05/21 10:54:18;;;;;;;4.97;1.30;;;;;;;24.97;39.82;100193.72;5053896;28;20056;-74
2022/05/21 10:56:57;;;;;;;3.17;1.60;;;;;;;25.08;38.17;100200.63;5052211;28;20494;-74
2022/05/21 10:59:44;;;;;;;4.22;1.23;;;;;;;24.96;39.94;100186.56;5053591;28;20045;-74
2022/05/21 11:02:43;;;;;;;3.33;1.60;;;;;;;24.76;41.32;100182.69;5053393;28;20048;-76
2022/05/21 11:05:42;;;;;;;1.75;1.17;;;;;;;25.19;38.97;100182.94;5069250;28;20409;-74
2022/05/21 11:08:16;;;;;;;3.78;1.60;;;;;;;25.35;40.04;100194.53;5050474;28;20099;-74
2022/05/21 11:10:52;;;;;;;3.65;1.67;;;;;;;25.33;39.74;100182.09;5053313;28;20064;-73
2022/05/21 11:13:23;;;;;;;3.58;1.80;;;;;;;25.49;41.22;100181.06;5068875;28;20560;-74
2022/05/21 11:15:56;;;;;;;3.90;1.70;;;;;;;25.16;41.72;100175.13;5052355;28;20490;-73
2022/05/21 11:18:36;;;;;;;3.40;1.60;;;;;;;25.07;41.73;100183.41;5053091;28;20414;-74
2022/05/21 11:21:10;;;;;;;4.80;1.65;;;;;;;24.72;42.15;100190.41;5053174;28;20119;-74
2022/05/21 11:23:46;;;;;;;3.80;1.55;;;;;;;24.75;40.52;100178.28;5051771;28;20059;-74
2022/05/21 11:26:23;;;;;;;8.65;1.80;;;;;;;24.93;40.61;100178.78;5053077;28;20387;-73
2022/05/21 11:28:56;;;;;;;4.45;1.75;;;;;;;24.97;39.67;100155.53;5052259;28;20406;-74
2022/05/21 11:39:49;;;;;;;3.42;1.85;;;;;;;25.39;38.05;100154.06;5053329;28;20045;-74
2022/05/21 11:42:22;;;;;;;4.40;1.70;;;;;;;25.17;37.52;100163.19;5052654;28;20052;-74
2022/05/21 11:44:58;;;;;;;4.05;1.90;;;;;;;25.15;37.77;100165.25;5051958;28;20088;-74
2022/05/21 11:47:54;;;;;;;12.80;2.13;;;;;;;25.30;37.82;100166.13;5068219;28;20482;-74
2022/05/21 11:50:27;;;;;;;4.60;1.50;;;;;;;25.17;38.59;100182.28;5052886;28;20052;-74
2022/05/21 11:52:57;;;;;;;;;;;;;;;25.24;38.71;100173.16;5051749;28;20064;-74
2022/05/21 11:55:27;;;;;;;5.80;2.30;;;;;;;25.38;39.45;100165.97;5052801;28;19971;-74
2022/05/21 11:57:58;;;;;;;5.07;1.95;;;;;;;25.48;39.96;100165.69;5053111;28;20119;-73
2022/05/21 12:00:49;;;;;;;3.25;1.73;;;;;;;25.34;40.75;100161.94;5051400;28;20147;-73
2022/05/21 12:03:22;;;;;;;3.65;1.95;;;;;;;25.20;41.37;100171.00;5052533;28;20383;-74
2022/05/21 12:06:25;;;;;;;4.28;2.33;;;;;;;25.31;42.18;100162.34;5052979;28;20048;-73
2022/05/21 12:09:09;;;;;;;3.77;1.87;;;;;;;25.49;41.14;100142.84;5049336;28;20448;-73
2022/05/21 12:11:41;;;;;;;3.97;1.70;;;;;;;25.46;41.75;100163.16;5067382;28;20301;-73
2022/05/21 12:14:22;;;;;;;6.95;2.30;;;;;;;25.45;41.78;100169.66;5068014;28;20052;-73
2022/05/21 12:16:59;;;;;;;8.82;2.47;;;;;;;25.31;41.52;100167.81;5068191;28;20055;-73
2022/05/21 12:20:06;;;;;;;3.63;1.98;;;;;;;25.24;42.43;100173.16;5052282;28;20116;-74